KIAH/IAH METAR and TAF weather

Enter ICAO airport designator
Station Type Date Time Source
KIAH METAR 2022/06/30 13:53 UTC NOAA

KIAH 301353Z 09010KT 7SM -RA BKN008 OVC025TCU 24/23 A3007 RMK AO2 RAB52 SLP181 TCU E AND S P0000 T02440228


Station Type Date Time Source
KIAH Decoded METAR 2022/06/30 13:53 UTC NOAA

HOUSTON INTERCONTINENTAL, TX, United States (KIAH) 30-00N 095-22W 36M
Jun 30, 2022 - 09:53 AM EDT / 2022.06.30 1353 UTC
Wind: from the E (090 degrees) at 12 MPH (10 KT):0
Visibility: 7 mile(s):0
Sky conditions: overcast
Weather: light rain; Towering cumulus clouds observed
Precipitation last hour: A trace
Temperature: 75.9 F (24.4 C)
Dew Point: 73.0 F (22.8 C)
Relative Humidity: 90%
Pressure (altimeter): 30.07 in. Hg (1018 hPa)
ob: KIAH 301353Z 09010KT 7SM -RA BKN008 OVC025TCU 24/23 A3007 RMK AO2 RAB52 SLP181 TCU E AND S P0000 T02440228
cycle: 14

Station Type Date Time Source
KIAH TAF 2022/06/30 14:21 UTC NOAA

TAF
AMD KIAH 301418Z 3014/0118 10010KT P6SM VCSH FEW008 BKN025
TEMPO 3014/3016 -SHRA BKN008
FM301600 13010KT P6SM SCT025 BKN035
FM301900 13010KT P6SM VCTS SCT035 BKN050CB BKN080
FM302200 12010KT P6SM FEW050 SCT080 BKN150
FM010900 10006KT P6SM VCSH OVC025 PROB30 0112/0115 6SM SHRA BKN015

Example: see airport list